sensor_id;sensor_type;location;lat;lon;timestamp;P1;durP1;ratioP1;P2;durP2;ratioP2
2638;SDS011;1329;51.384;7.122;2022-07-29T00:02:18;1.50;;;1.13;;
2638;SDS011;1329;51.384;7.122;2022-07-29T00:04:45;2.53;;;1.30;;
2638;SDS011;1329;51.384;7.122;2022-07-29T00:07:14;1.25;;;1.15;;
2638;SDS011;1329;51.384;7.122;2022-07-29T00:09:41;2.42;;;1.33;;
2638;SDS011;1329;51.384;7.122;2022-07-29T00:12:09;2.90;;;1.30;;
2638;SDS011;1329;51.384;7.122;2022-07-29T00:14:36;1.58;;;1.25;;
2638;SDS011;1329;51.384;7.122;2022-07-29T00:17:03;2.50;;;1.30;;
2638;SDS011;1329;51.384;7.122;2022-07-29T00:19:31;2.50;;;1.17;;
2638;SDS011;1329;51.384;7.122;2022-07-29T00:22:01;2.03;;;1.25;;
2638;SDS011;1329;51.384;7.122;2022-07-29T00:24:30;1.92;;;1.27;;
2638;SDS011;1329;51.384;7.122;2022-07-29T00:26:57;4.00;;;1.35;;
2638;SDS011;1329;51.384;7.122;2022-07-29T00:29:25;2.05;;;1.20;;
2638;SDS011;1329;51.384;7.122;2022-07-29T00:31:52;1.98;;;1.40;;
2638;SDS011;1329;51.384;7.122;2022-07-29T00:34:21;1.52;;;1.20;;
2638;SDS011;1329;51.384;7.122;2022-07-29T00:37:05;1.40;;;1.17;;
2638;SDS011;1329;51.384;7.122;2022-07-29T00:39:37;1.55;;;1.20;;
2638;SDS011;1329;51.384;7.122;2022-07-29T00:42:04;2.38;;;1.60;;
2638;SDS011;1329;51.384;7.122;2022-07-29T00:44:35;2.35;;;1.20;;
2638;SDS011;1329;51.384;7.122;2022-07-29T00:47:04;2.63;;;1.17;;
2638;SDS011;1329;51.384;7.122;2022-07-29T00:49:32;1.77;;;1.42;;
2638;SDS011;1329;51.384;7.122;2022-07-29T00:52:00;2.78;;;1.20;;
2638;SDS011;1329;51.384;7.122;2022-07-29T00:54:28;1.20;;;1.10;;
2638;SDS011;1329;51.384;7.122;2022-07-29T00:56:57;2.80;;;1.48;;
2638;SDS011;1329;51.384;7.122;2022-07-29T00:59:26;2.58;;;1.23;;
2638;SDS011;1329;51.384;7.122;2022-07-29T01:01:54;1.30;;;1.20;;
2638;SDS011;1329;51.384;7.122;2022-07-29T01:04:23;1.75;;;1.30;;
2638;SDS011;1329;51.384;7.122;2022-07-29T01:06:51;1.40;;;1.30;;
2638;SDS011;1329;51.384;7.122;2022-07-29T01:09:19;2.00;;;1.30;;
2638;SDS011;1329;51.384;7.122;2022-07-29T01:11:48;1.70;;;1.20;;
2638;SDS011;1329;51.384;7.122;2022-07-29T01:14:17;2.53;;;1.40;;
2638;SDS011;1329;51.384;7.122;2022-07-29T01:16:45;1.50;;;1.40;;
2638;SDS011;1329;51.384;7.122;2022-07-29T01:19:26;2.47;;;1.25;;
2638;SDS011;1329;51.384;7.122;2022-07-29T01:22:22;1.80;;;1.42;;
2638;SDS011;1329;51.384;7.122;2022-07-29T01:28:08;2.47;;;1.30;;
2638;SDS011;1329;51.384;7.122;2022-07-29T01:31:03;1.80;;;1.35;;
2638;SDS011;1329;51.384;7.122;2022-07-29T01:33:32;2.17;;;1.40;;
2638;SDS011;1329;51.384;7.122;2022-07-29T01:36:18;3.25;;;1.42;;
2638;SDS011;1329;51.384;7.122;2022-07-29T01:38:54;1.70;;;1.30;;
2638;SDS011;1329;51.384;7.122;2022-07-29T01:41:31;2.03;;;1.50;;
2638;SDS011;1329;51.384;7.122;2022-07-29T01:44:01;2.13;;;1.52;;
2638;SDS011;1329;51.384;7.122;2022-07-29T01:46:41;1.25;;;1.15;;
2638;SDS011;1329;51.384;7.122;2022-07-29T01:49:16;1.50;;;1.40;;
2638;SDS011;1329;51.384;7.122;2022-07-29T01:51:49;2.13;;;1.45;;
2638;SDS011;1329;51.384;7.122;2022-07-29T01:54:20;2.00;;;1.20;;
2638;SDS011;1329;51.384;7.122;2022-07-29T01:56:55;1.50;;;1.40;;
2638;SDS011;1329;51.384;7.122;2022-07-29T01:59:25;2.00;;;1.40;;
2638;SDS011;1329;51.384;7.122;2022-07-29T02:01:54;1.60;;;1.50;;
2638;SDS011;1329;51.384;7.122;2022-07-29T02:04:26;2.67;;;1.40;;
2638;SDS011;1329;51.384;7.122;2022-07-29T02:06:57;2.25;;;1.48;;
2638;SDS011;1329;51.384;7.122;2022-07-29T02:09:29;2.50;;;1.50;;
2638;SDS011;1329;51.384;7.122;2022-07-29T02:12:02;1.50;;;1.20;;
2638;SDS011;1329;51.384;7.122;2022-07-29T02:14:33;2.15;;;1.48;;
2638;SDS011;1329;51.384;7.122;2022-07-29T02:17:05;2.55;;;1.40;;
2638;SDS011;1329;51.384;7.122;2022-07-29T02:19:34;2.33;;;1.50;;
2638;SDS011;1329;51.384;7.122;2022-07-29T02:22:05;2.00;;;1.40;;
2638;SDS011;1329;51.384;7.122;2022-07-29T02:24:33;1.50;;;1.30;;
2638;SDS011;1329;51.384;7.122;2022-07-29T02:27:03;1.95;;;1.58;;
2638;SDS011;1329;51.384;7.122;2022-07-29T02:29:31;2.25;;;1.30;;
2638;SDS011;1329;51.384;7.122;2022-07-29T02:32:01;1.75;;;1.40;;
2638;SDS011;1329;51.384;7.122;2022-07-29T02:34:32;1.85;;;1.38;;
2638;SDS011;1329;51.384;7.122;2022-07-29T02:37:02;1.60;;;1.30;;
2638;SDS011;1329;51.384;7.122;2022-07-29T02:39:30;2.15;;;1.48;;
2638;SDS011;1329;51.384;7.122;2022-07-29T02:41:59;1.80;;;1.50;;
2638;SDS011;1329;51.384;7.122;2022-07-29T02:44:31;2.63;;;1.58;;
2638;SDS011;1329;51.384;7.122;2022-07-29T02:47:02;2.70;;;1.30;;
2638;SDS011;1329;51.384;7.122;2022-07-29T02:49:38;2.05;;;1.55;;
2638;SDS011;1329;51.384;7.122;2022-07-29T02:52:11;4.38;;;1.60;;
2638;SDS011;1329;51.384;7.122;2022-07-29T02:54:45;2.95;;;1.70;;
2638;SDS011;1329;51.384;7.122;2022-07-29T02:57:19;3.53;;;1.63;;
2638;SDS011;1329;51.384;7.122;2022-07-29T02:59:50;1.75;;;1.50;;
2638;SDS011;1329;51.384;7.122;2022-07-29T03:02:20;2.20;;;1.40;;
2638;SDS011;1329;51.384;7.122;2022-07-29T03:04:48;2.63;;;1.35;;
2638;SDS011;1329;51.384;7.122;2022-07-29T03:07:18;4.10;;;1.55;;
2638;SDS011;1329;51.384;7.122;2022-07-29T03:09:49;2.67;;;1.40;;
2638;SDS011;1329;51.384;7.122;2022-07-29T03:12:17;1.90;;;1.65;;
2638;SDS011;1329;51.384;7.122;2022-07-29T03:14:46;1.90;;;1.30;;
2638;SDS011;1329;51.384;7.122;2022-07-29T03:17:15;3.70;;;1.58;;
2638;SDS011;1329;51.384;7.122;2022-07-29T03:19:44;1.70;;;1.33;;
2638;SDS011;1329;51.384;7.122;2022-07-29T03:22:11;1.60;;;1.50;;
2638;SDS011;1329;51.384;7.122;2022-07-29T03:24:40;3.30;;;1.60;;
2638;SDS011;1329;51.384;7.122;2022-07-29T03:27:07;1.50;;;1.40;;
2638;SDS011;1329;51.384;7.122;2022-07-29T03:29:38;2.83;;;1.70;;
2638;SDS011;1329;51.384;7.122;2022-07-29T03:32:05;2.65;;;1.40;;
2638;SDS011;1329;51.384;7.122;2022-07-29T03:34:33;4.20;;;1.40;;
2638;SDS011;1329;51.384;7.122;2022-07-29T03:37:02;2.40;;;1.55;;
2638;SDS011;1329;51.384;7.122;2022-07-29T03:39:31;3.50;;;2.00;;
2638;SDS011;1329;51.384;7.122;2022-07-29T03:42:07;2.92;;;1.50;;
2638;SDS011;1329;51.384;7.122;2022-07-29T03:44:39;2.80;;;1.73;;
2638;SDS011;1329;51.384;7.122;2022-07-29T03:47:09;2.72;;;1.80;;
2638;SDS011;1329;51.384;7.122;2022-07-29T03:49:40;2.60;;;1.80;;
2638;SDS011;1329;51.384;7.122;2022-07-29T03:52:10;4.05;;;1.63;;
2638;SDS011;1329;51.384;7.122;2022-07-29T03:54:37;2.65;;;1.60;;
2638;SDS011;1329;51.384;7.122;2022-07-29T03:57:06;3.53;;;1.70;;
2638;SDS011;1329;51.384;7.122;2022-07-29T03:59:37;4.10;;;1.88;;
2638;SDS011;1329;51.384;7.122;2022-07-29T04:02:06;1.92;;;1.50;;
2638;SDS011;1329;51.384;7.122;2022-07-29T04:04:40;2.38;;;1.55;;
2638;SDS011;1329;51.384;7.122;2022-07-29T04:07:12;1.98;;;1.52;;
2638;SDS011;1329;51.384;7.122;2022-07-29T04:09:51;1.98;;;1.40;;
2638;SDS011;1329;51.384;7.122;2022-07-29T04:12:21;1.77;;;1.40;;
2638;SDS011;1329;51.384;7.122;2022-07-29T04:14:48;2.38;;;1.70;;
2638;SDS011;1329;51.384;7.122;2022-07-29T04:17:16;1.90;;;1.60;;
2638;SDS011;1329;51.384;7.122;2022-07-29T04:19:44;3.17;;;1.92;;
2638;SDS011;1329;51.384;7.122;2022-07-29T04:22:13;2.83;;;1.73;;
2638;SDS011;1329;51.384;7.122;2022-07-29T04:24:40;2.03;;;1.60;;
2638;SDS011;1329;51.384;7.122;2022-07-29T04:27:08;2.05;;;1.30;;
2638;SDS011;1329;51.384;7.122;2022-07-29T04:29:37;4.25;;;1.55;;
2638;SDS011;1329;51.384;7.122;2022-07-29T04:32:05;2.00;;;1.50;;
2638;SDS011;1329;51.384;7.122;2022-07-29T04:34:32;1.90;;;1.30;;
2638;SDS011;1329;51.384;7.122;2022-07-29T04:37:00;2.95;;;1.50;;
2638;SDS011;1329;51.384;7.122;2022-07-29T04:39:29;2.28;;;1.58;;
2638;SDS011;1329;51.384;7.122;2022-07-29T04:41:57;2.80;;;1.48;;
2638;SDS011;1329;51.384;7.122;2022-07-29T04:44:24;2.30;;;1.20;;
2638;SDS011;1329;51.384;7.122;2022-07-29T04:46:53;1.38;;;1.13;;
2638;SDS011;1329;51.384;7.122;2022-07-29T04:49:22;1.98;;;1.30;;
2638;SDS011;1329;51.384;7.122;2022-07-29T04:51:49;2.65;;;1.20;;
2638;SDS011;1329;51.384;7.122;2022-07-29T04:54:17;3.20;;;1.33;;
2638;SDS011;1329;51.384;7.122;2022-07-29T04:56:46;4.57;;;1.55;;
2638;SDS011;1329;51.384;7.122;2022-07-29T04:59:14;2.35;;;1.15;;
2638;SDS011;1329;51.384;7.122;2022-07-29T05:01:41;1.45;;;1.20;;
2638;SDS011;1329;51.384;7.122;2022-07-29T05:04:08;3.05;;;1.20;;
2638;SDS011;1329;51.384;7.122;2022-07-29T05:06:36;1.20;;;1.08;;
2638;SDS011;1329;51.384;7.122;2022-07-29T05:09:04;1.60;;;1.50;;
2638;SDS011;1329;51.384;7.122;2022-07-29T05:11:31;1.77;;;1.15;;
2638;SDS011;1329;51.384;7.122;2022-07-29T05:14:00;1.83;;;1.20;;
2638;SDS011;1329;51.384;7.122;2022-07-29T05:16:28;2.28;;;1.40;;
2638;SDS011;1329;51.384;7.122;2022-07-29T05:18:55;1.30;;;1.20;;
2638;SDS011;1329;51.384;7.122;2022-07-29T05:21:23;2.75;;;1.48;;
2638;SDS011;1329;51.384;7.122;2022-07-29T05:23:53;2.80;;;1.40;;
2638;SDS011;1329;51.384;7.122;2022-07-29T05:26:21;1.70;;;1.35;;
2638;SDS011;1329;51.384;7.122;2022-07-29T05:28:48;1.30;;;1.15;;
2638;SDS011;1329;51.384;7.122;2022-07-29T05:31:18;1.80;;;1.20;;
2638;SDS011;1329;51.384;7.122;2022-07-29T05:33:45;1.30;;;1.17;;
2638;SDS011;1329;51.384;7.122;2022-07-29T05:36:14;1.77;;;1.35;;
2638;SDS011;1329;51.384;7.122;2022-07-29T05:38:42;2.15;;;1.40;;
2638;SDS011;1329;51.384;7.122;2022-07-29T05:41:10;2.72;;;1.20;;
2638;SDS011;1329;51.384;7.122;2022-07-29T05:43:37;1.45;;;1.35;;
2638;SDS011;1329;51.384;7.122;2022-07-29T05:46:05;3.30;;;1.70;;
2638;SDS011;1329;51.384;7.122;2022-07-29T05:48:34;3.83;;;1.83;;
2638;SDS011;1329;51.384;7.122;2022-07-29T05:51:02;1.90;;;1.45;;
2638;SDS011;1329;51.384;7.122;2022-07-29T05:53:30;2.38;;;1.42;;
2638;SDS011;1329;51.384;7.122;2022-07-29T05:55:58;2.58;;;1.67;;
2638;SDS011;1329;51.384;7.122;2022-07-29T05:58:31;1.73;;;1.38;;
2638;SDS011;1329;51.384;7.122;2022-07-29T06:01:01;2.33;;;1.20;;
2638;SDS011;1329;51.384;7.122;2022-07-29T06:03:29;2.88;;;1.55;;
2638;SDS011;1329;51.384;7.122;2022-07-29T06:05:58;2.78;;;1.83;;
2638;SDS011;1329;51.384;7.122;2022-07-29T06:08:28;2.47;;;1.70;;
2638;SDS011;1329;51.384;7.122;2022-07-29T06:10:56;2.13;;;1.60;;
2638;SDS011;1329;51.384;7.122;2022-07-29T06:13:25;2.63;;;1.90;;
2638;SDS011;1329;51.384;7.122;2022-07-29T06:15:53;2.30;;;1.50;;
2638;SDS011;1329;51.384;7.122;2022-07-29T06:18:23;1.55;;;1.40;;
2638;SDS011;1329;51.384;7.122;2022-07-29T06:20:51;1.88;;;1.33;;
2638;SDS011;1329;51.384;7.122;2022-07-29T06:23:21;1.65;;;1.50;;
2638;SDS011;1329;51.384;7.122;2022-07-29T06:25:50;2.30;;;1.50;;
2638;SDS011;1329;51.384;7.122;2022-07-29T06:28:18;2.92;;;1.50;;
2638;SDS011;1329;51.384;7.122;2022-07-29T06:30:45;2.40;;;1.40;;
2638;SDS011;1329;51.384;7.122;2022-07-29T06:33:16;1.92;;;1.45;;
2638;SDS011;1329;51.384;7.122;2022-07-29T06:35:44;2.35;;;1.50;;
2638;SDS011;1329;51.384;7.122;2022-07-29T06:38:14;2.60;;;1.40;;
2638;SDS011;1329;51.384;7.122;2022-07-29T06:40:43;2.78;;;1.40;;
2638;SDS011;1329;51.384;7.122;2022-07-29T06:43:27;2.40;;;1.48;;
2638;SDS011;1329;51.384;7.122;2022-07-29T06:45:58;2.47;;;1.50;;
2638;SDS011;1329;51.384;7.122;2022-07-29T06:48:26;2.25;;;1.30;;
2638;SDS011;1329;51.384;7.122;2022-07-29T06:50:55;3.35;;;1.60;;
2638;SDS011;1329;51.384;7.122;2022-07-29T06:53:25;2.30;;;1.55;;
2638;SDS011;1329;51.384;7.122;2022-07-29T06:55:56;3.55;;;1.42;;
2638;SDS011;1329;51.384;7.122;2022-07-29T06:58:25;3.28;;;1.95;;
2638;SDS011;1329;51.384;7.122;2022-07-29T07:00:53;2.05;;;1.48;;
2638;SDS011;1329;51.384;7.122;2022-07-29T07:03:22;2.80;;;1.60;;
2638;SDS011;1329;51.384;7.122;2022-07-29T07:05:51;2.75;;;1.40;;
2638;SDS011;1329;51.384;7.122;2022-07-29T07:08:20;3.22;;;1.50;;
2638;SDS011;1329;51.384;7.122;2022-07-29T07:10:49;2.75;;;1.65;;
2638;SDS011;1329;51.384;7.122;2022-07-29T07:13:19;4.18;;;1.77;;
2638;SDS011;1329;51.384;7.122;2022-07-29T07:15:47;4.60;;;1.60;;
2638;SDS011;1329;51.384;7.122;2022-07-29T07:18:20;2.85;;;1.50;;
2638;SDS011;1329;51.384;7.122;2022-07-29T07:20:48;2.97;;;1.40;;
2638;SDS011;1329;51.384;7.122;2022-07-29T07:23:15;1.75;;;1.40;;
2638;SDS011;1329;51.384;7.122;2022-07-29T07:25:43;2.40;;;1.52;;
2638;SDS011;1329;51.384;7.122;2022-07-29T07:28:11;1.52;;;1.42;;
2638;SDS011;1329;51.384;7.122;2022-07-29T07:30:40;2.17;;;1.50;;
2638;SDS011;1329;51.384;7.122;2022-07-29T07:33:10;1.65;;;1.55;;
2638;SDS011;1329;51.384;7.122;2022-07-29T07:35:38;1.92;;;1.45;;
2638;SDS011;1329;51.384;7.122;2022-07-29T07:38:06;2.50;;;1.40;;
2638;SDS011;1329;51.384;7.122;2022-07-29T07:40:34;2.20;;;1.70;;
2638;SDS011;1329;51.384;7.122;2022-07-29T07:43:02;2.15;;;1.70;;
2638;SDS011;1329;51.384;7.122;2022-07-29T07:45:32;2.75;;;1.73;;
2638;SDS011;1329;51.384;7.122;2022-07-29T07:48:03;2.78;;;1.70;;
2638;SDS011;1329;51.384;7.122;2022-07-29T07:50:31;1.85;;;1.48;;
2638;SDS011;1329;51.384;7.122;2022-07-29T07:52:59;2.60;;;1.52;;
2638;SDS011;1329;51.384;7.122;2022-07-29T07:55:27;2.78;;;1.75;;
2638;SDS011;1329;51.384;7.122;2022-07-29T07:57:55;2.60;;;1.80;;
2638;SDS011;1329;51.384;7.122;2022-07-29T08:00:22;4.30;;;1.70;;
2638;SDS011;1329;51.384;7.122;2022-07-29T08:02:51;2.22;;;1.60;;
2638;SDS011;1329;51.384;7.122;2022-07-29T08:05:21;2.95;;;1.70;;
2638;SDS011;1329;51.384;7.122;2022-07-29T08:07:51;3.13;;;1.83;;
2638;SDS011;1329;51.384;7.122;2022-07-29T08:10:20;2.58;;;1.75;;
2638;SDS011;1329;51.384;7.122;2022-07-29T08:13:02;3.28;;;1.70;;
2638;SDS011;1329;51.384;7.122;2022-07-29T08:15:30;2.70;;;1.88;;
2638;SDS011;1329;51.384;7.122;2022-07-29T08:17:58;1.67;;;1.58;;
2638;SDS011;1329;51.384;7.122;2022-07-29T08:20:28;2.20;;;1.63;;
2638;SDS011;1329;51.384;7.122;2022-07-29T08:22:59;3.05;;;1.70;;
2638;SDS011;1329;51.384;7.122;2022-07-29T08:25:27;2.33;;;1.60;;
2638;SDS011;1329;51.384;7.122;2022-07-29T08:27:55;2.80;;;1.70;;
2638;SDS011;1329;51.384;7.122;2022-07-29T08:30:23;2.38;;;1.50;;
2638;SDS011;1329;51.384;7.122;2022-07-29T08:32:54;3.67;;;1.50;;
2638;SDS011;1329;51.384;7.122;2022-07-29T08:35:22;2.80;;;1.45;;
2638;SDS011;1329;51.384;7.122;2022-07-29T08:37:52;2.30;;;1.70;;
2638;SDS011;1329;51.384;7.122;2022-07-29T08:40:22;1.45;;;1.35;;
2638;SDS011;1329;51.384;7.122;2022-07-29T08:42:51;2.97;;;1.70;;
2638;SDS011;1329;51.384;7.122;2022-07-29T08:45:18;2.42;;;1.58;;
2638;SDS011;1329;51.384;7.122;2022-07-29T08:47:50;2.88;;;1.70;;
2638;SDS011;1329;51.384;7.122;2022-07-29T08:50:19;2.10;;;1.60;;
2638;SDS011;1329;51.384;7.122;2022-07-29T08:52:46;2.13;;;1.67;;
2638;SDS011;1329;51.384;7.122;2022-07-29T08:55:16;2.13;;;1.55;;
2638;SDS011;1329;51.384;7.122;2022-07-29T08:57:44;1.70;;;1.60;;
2638;SDS011;1329;51.384;7.122;2022-07-29T09:00:12;1.92;;;1.52;;
2638;SDS011;1329;51.384;7.122;2022-07-29T09:02:43;2.13;;;1.60;;
2638;SDS011;1329;51.384;7.122;2022-07-29T09:05:16;2.15;;;1.60;;
2638;SDS011;1329;51.384;7.122;2022-07-29T09:07:45;3.22;;;1.60;;
2638;SDS011;1329;51.384;7.122;2022-07-29T09:10:13;2.47;;;1.60;;
2638;SDS011;1329;51.384;7.122;2022-07-29T09:12:42;3.20;;;1.70;;
2638;SDS011;1329;51.384;7.122;2022-07-29T09:15:10;3.35;;;1.80;;
2638;SDS011;1329;51.384;7.122;2022-07-29T09:17:41;2.83;;;1.88;;
2638;SDS011;1329;51.384;7.122;2022-07-29T09:20:10;3.00;;;1.75;;
2638;SDS011;1329;51.384;7.122;2022-07-29T09:22:40;3.15;;;1.90;;
2638;SDS011;1329;51.384;7.122;2022-07-29T09:25:07;3.13;;;2.22;;
2638;SDS011;1329;51.384;7.122;2022-07-29T09:27:37;2.40;;;2.17;;
2638;SDS011;1329;51.384;7.122;2022-07-29T09:30:06;2.45;;;1.80;;
2638;SDS011;1329;51.384;7.122;2022-07-29T09:35:25;2.58;;;1.80;;
2638;SDS011;1329;51.384;7.122;2022-07-29T09:37:54;2.35;;;1.90;;
2638;SDS011;1329;51.384;7.122;2022-07-29T09:40:23;3.00;;;1.70;;
2638;SDS011;1329;51.384;7.122;2022-07-29T09:42:53;2.63;;;1.90;;
2638;SDS011;1329;51.384;7.122;2022-07-29T09:45:30;1.90;;;1.80;;
2638;SDS011;1329;51.384;7.122;2022-07-29T09:48:00;2.88;;;1.70;;
2638;SDS011;1329;51.384;7.122;2022-07-29T09:50:42;4.88;;;2.25;;
2638;SDS011;1329;51.384;7.122;2022-07-29T09:53:12;3.30;;;1.98;;
2638;SDS011;1329;51.384;7.122;2022-07-29T09:55:58;2.97;;;1.80;;
2638;SDS011;1329;51.384;7.122;2022-07-29T09:58:26;3.28;;;2.15;;
2638;SDS011;1329;51.384;7.122;2022-07-29T10:00:55;3.45;;;1.90;;
2638;SDS011;1329;51.384;7.122;2022-07-29T10:03:25;4.80;;;2.15;;
2638;SDS011;1329;51.384;7.122;2022-07-29T10:06:06;2.63;;;1.90;;
2638;SDS011;1329;51.384;7.122;2022-07-29T10:08:35;4.18;;;2.40;;
2638;SDS011;1329;51.384;7.122;2022-07-29T10:11:09;2.60;;;2.05;;
2638;SDS011;1329;51.384;7.122;2022-07-29T10:13:39;2.33;;;2.03;;
2638;SDS011;1329;51.384;7.122;2022-07-29T10:16:09;3.80;;;2.20;;
2638;SDS011;1329;51.384;7.122;2022-07-29T10:18:38;3.95;;;2.70;;
2638;SDS011;1329;51.384;7.122;2022-07-29T10:21:11;4.75;;;2.38;;
2638;SDS011;1329;51.384;7.122;2022-07-29T10:23:44;3.88;;;2.20;;
2638;SDS011;1329;51.384;7.122;2022-07-29T10:26:12;3.72;;;2.47;;
2638;SDS011;1329;51.384;7.122;2022-07-29T10:28:43;3.22;;;2.45;;
2638;SDS011;1329;51.384;7.122;2022-07-29T10:31:14;2.63;;;2.35;;
2638;SDS011;1329;51.384;7.122;2022-07-29T10:33:52;4.03;;;2.38;;
2638;SDS011;1329;51.384;7.122;2022-07-29T10:36:35;3.33;;;2.50;;
2638;SDS011;1329;51.384;7.122;2022-07-29T10:39:18;3.10;;;2.45;;
2638;SDS011;1329;51.384;7.122;2022-07-29T10:42:02;3.03;;;2.28;;
2638;SDS011;1329;51.384;7.122;2022-07-29T10:44:41;4.07;;;2.30;;
2638;SDS011;1329;51.384;7.122;2022-07-29T10:47:20;3.08;;;2.10;;
2638;SDS011;1329;51.384;7.122;2022-07-29T10:49:57;2.72;;;2.30;;
2638;SDS011;1329;51.384;7.122;2022-07-29T10:55:32;3.42;;;1.90;;
2638;SDS011;1329;51.384;7.122;2022-07-29T10:58:13;4.13;;;2.13;;
2638;SDS011;1329;51.384;7.122;2022-07-29T11:00:42;3.85;;;2.13;;
2638;SDS011;1329;51.384;7.122;2022-07-29T11:03:16;3.67;;;2.05;;
2638;SDS011;1329;51.384;7.122;2022-07-29T11:06:13;4.25;;;2.03;;
2638;SDS011;1329;51.384;7.122;2022-07-29T11:08:41;3.15;;;2.20;;
2638;SDS011;1329;51.384;7.122;2022-07-29T11:14:05;2.28;;;2.08;;
2638;SDS011;1329;51.384;7.122;2022-07-29T11:19:28;3.92;;;2.13;;
2638;SDS011;1329;51.384;7.122;2022-07-29T11:21:56;4.35;;;2.60;;
2638;SDS011;1329;51.384;7.122;2022-07-29T11:24:28;4.10;;;2.40;;
2638;SDS011;1329;51.384;7.122;2022-07-29T11:27:09;3.65;;;2.33;;
2638;SDS011;1329;51.384;7.122;2022-07-29T11:29:49;4.47;;;2.67;;
2638;SDS011;1329;51.384;7.122;2022-07-29T11:32:19;3.25;;;2.28;;
2638;SDS011;1329;51.384;7.122;2022-07-29T11:35:09;3.30;;;2.42;;
2638;SDS011;1329;51.384;7.122;2022-07-29T11:37:40;3.75;;;2.55;;
2638;SDS011;1329;51.384;7.122;2022-07-29T11:40:11;3.50;;;2.40;;
2638;SDS011;1329;51.384;7.122;2022-07-29T11:42:48;3.00;;;2.65;;
2638;SDS011;1329;51.384;7.122;2022-07-29T11:45:20;3.00;;;2.30;;
2638;SDS011;1329;51.384;7.122;2022-07-29T11:47:54;2.85;;;2.65;;
2638;SDS011;1329;51.384;7.122;2022-07-29T11:50:30;3.05;;;2.40;;
2638;SDS011;1329;51.384;7.122;2022-07-29T11:53:01;3.03;;;2.38;;
2638;SDS011;1329;51.384;7.122;2022-07-29T11:55:38;3.88;;;2.40;;
2638;SDS011;1329;51.384;7.122;2022-07-29T11:58:07;2.40;;;2.20;;
2638;SDS011;1329;51.384;7.122;2022-07-29T12:00:36;3.72;;;2.47;;
2638;SDS011;1329;51.384;7.122;2022-07-29T12:03:06;3.70;;;2.00;;
2638;SDS011;1329;51.384;7.122;2022-07-29T12:05:39;4.10;;;2.22;;
2638;SDS011;1329;51.384;7.122;2022-07-29T12:08:11;2.97;;;2.25;;
2638;SDS011;1329;51.384;7.122;2022-07-29T12:10:41;3.88;;;2.00;;
2638;SDS011;1329;51.384;7.122;2022-07-29T12:13:09;2.83;;;2.08;;
2638;SDS011;1329;51.384;7.122;2022-07-29T12:15:42;3.40;;;2.00;;
2638;SDS011;1329;51.384;7.122;2022-07-29T12:18:19;2.47;;;2.00;;
2638;SDS011;1329;51.384;7.122;2022-07-29T12:20:49;1.65;;;1.40;;
2638;SDS011;1329;51.384;7.122;2022-07-29T12:23:24;2.00;;;1.45;;
2638;SDS011;1329;51.384;7.122;2022-07-29T12:26:03;2.40;;;1.70;;
2638;SDS011;1329;51.384;7.122;2022-07-29T12:28:32;3.10;;;2.17;;
2638;SDS011;1329;51.384;7.122;2022-07-29T12:31:03;2.00;;;1.80;;
2638;SDS011;1329;51.384;7.122;2022-07-29T12:33:31;2.20;;;1.95;;
2638;SDS011;1329;51.384;7.122;2022-07-29T12:36:01;3.00;;;2.00;;
2638;SDS011;1329;51.384;7.122;2022-07-29T12:38:30;4.07;;;2.40;;
2638;SDS011;1329;51.384;7.122;2022-07-29T12:40:57;4.07;;;2.22;;
2638;SDS011;1329;51.384;7.122;2022-07-29T12:43:25;3.53;;;2.10;;
2638;SDS011;1329;51.384;7.122;2022-07-29T12:45:53;3.55;;;2.38;;
2638;SDS011;1329;51.384;7.122;2022-07-29T12:48:33;3.85;;;2.00;;
2638;SDS011;1329;51.384;7.122;2022-07-29T12:51:03;2.33;;;2.13;;
2638;SDS011;1329;51.384;7.122;2022-07-29T12:53:32;2.97;;;2.10;;
2638;SDS011;1329;51.384;7.122;2022-07-29T12:56:02;2.30;;;2.10;;
2638;SDS011;1329;51.384;7.122;2022-07-29T12:58:32;2.90;;;2.00;;
2638;SDS011;1329;51.384;7.122;2022-07-29T13:01:05;4.00;;;2.25;;
2638;SDS011;1329;51.384;7.122;2022-07-29T13:03:43;2.90;;;1.75;;
2638;SDS011;1329;51.384;7.122;2022-07-29T13:06:34;2.08;;;1.88;;
2638;SDS011;1329;51.384;7.122;2022-07-29T13:09:06;3.10;;;2.17;;
2638;SDS011;1329;51.384;7.122;2022-07-29T13:11:39;3.25;;;2.08;;
2638;SDS011;1329;51.384;7.122;2022-07-29T13:14:09;4.63;;;2.17;;
2638;SDS011;1329;51.384;7.122;2022-07-29T13:19:37;3.05;;;1.70;;
2638;SDS011;1329;51.384;7.122;2022-07-29T13:22:12;3.00;;;2.30;;
2638;SDS011;1329;51.384;7.122;2022-07-29T13:24:50;2.72;;;2.00;;
2638;SDS011;1329;51.384;7.122;2022-07-29T13:27:29;3.80;;;2.33;;
2638;SDS011;1329;51.384;7.122;2022-07-29T13:29:59;2.28;;;1.83;;
2638;SDS011;1329;51.384;7.122;2022-07-29T13:32:29;2.97;;;2.08;;
2638;SDS011;1329;51.384;7.122;2022-07-29T13:35:02;3.70;;;2.30;;
2638;SDS011;1329;51.384;7.122;2022-07-29T13:37:36;2.75;;;2.30;;
2638;SDS011;1329;51.384;7.122;2022-07-29T13:40:07;3.15;;;2.00;;
2638;SDS011;1329;51.384;7.122;2022-07-29T13:42:37;2.42;;;1.90;;
2638;SDS011;1329;51.384;7.122;2022-07-29T13:45:06;4.40;;;2.63;;
2638;SDS011;1329;51.384;7.122;2022-07-29T13:47:36;4.50;;;2.40;;
2638;SDS011;1329;51.384;7.122;2022-07-29T13:50:05;3.70;;;2.28;;
2638;SDS011;1329;51.384;7.122;2022-07-29T13:52:37;4.00;;;2.50;;
2638;SDS011;1329;51.384;7.122;2022-07-29T13:55:05;2.47;;;2.20;;
2638;SDS011;1329;51.384;7.122;2022-07-29T13:57:34;3.95;;;2.80;;
2638;SDS011;1329;51.384;7.122;2022-07-29T14:00:02;2.95;;;2.67;;
2638;SDS011;1329;51.384;7.122;2022-07-29T14:02:31;5.35;;;2.25;;
2638;SDS011;1329;51.384;7.122;2022-07-29T14:04:59;4.13;;;2.75;;
2638;SDS011;1329;51.384;7.122;2022-07-29T14:07:27;3.20;;;2.05;;
2638;SDS011;1329;51.384;7.122;2022-07-29T14:09:56;3.63;;;2.38;;
2638;SDS011;1329;51.384;7.122;2022-07-29T14:12:26;2.90;;;2.60;;
2638;SDS011;1329;51.384;7.122;2022-07-29T14:14:53;3.17;;;2.88;;
2638;SDS011;1329;51.384;7.122;2022-07-29T14:17:21;5.00;;;2.53;;
2638;SDS011;1329;51.384;7.122;2022-07-29T14:19:51;4.78;;;3.08;;
2638;SDS011;1329;51.384;7.122;2022-07-29T14:22:19;3.85;;;2.45;;
2638;SDS011;1329;51.384;7.122;2022-07-29T14:24:46;3.58;;;2.40;;
2638;SDS011;1329;51.384;7.122;2022-07-29T14:27:15;2.17;;;1.95;;
2638;SDS011;1329;51.384;7.122;2022-07-29T14:29:43;2.65;;;2.00;;
2638;SDS011;1329;51.384;7.122;2022-07-29T14:32:11;2.67;;;2.25;;
2638;SDS011;1329;51.384;7.122;2022-07-29T14:34:40;2.80;;;2.33;;
2638;SDS011;1329;51.384;7.122;2022-07-29T14:37:07;2.83;;;2.28;;
2638;SDS011;1329;51.384;7.122;2022-07-29T14:39:35;3.58;;;2.10;;
2638;SDS011;1329;51.384;7.122;2022-07-29T14:42:03;4.00;;;2.00;;
2638;SDS011;1329;51.384;7.122;2022-07-29T14:44:32;2.25;;;1.88;;
2638;SDS011;1329;51.384;7.122;2022-07-29T14:46:59;2.75;;;1.95;;
2638;SDS011;1329;51.384;7.122;2022-07-29T14:49:27;3.70;;;2.25;;
2638;SDS011;1329;51.384;7.122;2022-07-29T14:51:54;4.68;;;2.40;;
2638;SDS011;1329;51.384;7.122;2022-07-29T14:54:22;4.45;;;2.42;;
2638;SDS011;1329;51.384;7.122;2022-07-29T14:56:49;2.42;;;2.00;;
2638;SDS011;1329;51.384;7.122;2022-07-29T14:59:22;3.63;;;2.30;;
2638;SDS011;1329;51.384;7.122;2022-07-29T15:01:51;3.40;;;1.98;;
2638;SDS011;1329;51.384;7.122;2022-07-29T15:04:18;2.17;;;2.00;;
2638;SDS011;1329;51.384;7.122;2022-07-29T15:06:48;2.72;;;2.30;;
2638;SDS011;1329;51.384;7.122;2022-07-29T15:09:17;3.65;;;2.10;;
2638;SDS011;1329;51.384;7.122;2022-07-29T15:11:44;3.60;;;2.28;;
2638;SDS011;1329;51.384;7.122;2022-07-29T15:14:12;3.83;;;2.28;;
2638;SDS011;1329;51.384;7.122;2022-07-29T15:16:41;3.20;;;1.98;;
2638;SDS011;1329;51.384;7.122;2022-07-29T15:19:10;4.13;;;2.15;;
2638;SDS011;1329;51.384;7.122;2022-07-29T15:21:38;3.08;;;2.33;;
2638;SDS011;1329;51.384;7.122;2022-07-29T15:24:05;3.15;;;2.33;;
2638;SDS011;1329;51.384;7.122;2022-07-29T15:26:34;3.28;;;2.00;;
2638;SDS011;1329;51.384;7.122;2022-07-29T15:29:02;2.75;;;1.88;;
2638;SDS011;1329;51.384;7.122;2022-07-29T15:31:30;3.92;;;2.08;;
2638;SDS011;1329;51.384;7.122;2022-07-29T15:33:57;3.22;;;2.13;;
2638;SDS011;1329;51.384;7.122;2022-07-29T15:36:26;3.30;;;2.08;;
2638;SDS011;1329;51.384;7.122;2022-07-29T15:38:55;3.72;;;2.28;;
2638;SDS011;1329;51.384;7.122;2022-07-29T15:41:23;5.10;;;2.60;;
2638;SDS011;1329;51.384;7.122;2022-07-29T15:43:51;2.70;;;2.17;;
2638;SDS011;1329;51.384;7.122;2022-07-29T15:46:21;3.60;;;2.50;;
2638;SDS011;1329;51.384;7.122;2022-07-29T15:49:09;2.78;;;2.30;;
2638;SDS011;1329;51.384;7.122;2022-07-29T15:51:41;3.45;;;2.53;;
2638;SDS011;1329;51.384;7.122;2022-07-29T15:54:08;3.03;;;2.33;;